»·PEaware :: DAL3974 KLAX-KSAN

DAL3974 :: KLAX-KSAN

FLIGHT INFORMATION

Flight Status: Arrived
Operator:
Delta Air Lines
More flights by this operator :: More flights under this callsign
Pilot: Blake E. (25579)
Aircraft: AIRBUS A321
(A321)
More flights by this aircraft type
Origin: KLAX Los Angeles Intl
United States
Destination: KSAN San Diego Intl-Lindbergh
United States
More flights between these airports :: More routes between these airports
Route: +LAXX1 MZB
File this flight plan on PilotEdge
Remarks: PLANNED OPTIMUM FLIGHT LEVEL
Altitude:
(Current/Filed)
11,000ft
Speed:
(Current/Filed)
250kts
Departed: 23-Mar-20 04:56 PM
Arrived: 23-Mar-20 05:31 PM
Distance/Time
Traveled:
94nm/0:35
Distance/Time
To Go:
Arrived

Flight Plot

Page will automatically refresh every two minutes.

Flight plan parsing failed; only flown route is shown


Map Options




Map Legend


Flown Route
Filed Route
Departure Airport
Arrival Airport
Navaid (VOR, NDB)
Fix

Horizontal Profiles

Position Reports

Time Latitude Longitude Heading Altitude Ground
Speed
23-Mar-20 16:25 33.947122 -118.404755 134 126ft 0kts
23-Mar-20 16:26 33.947122 -118.404755 134 126ft 0kts
23-Mar-20 16:27 33.947122 -118.404755 134 126ft 0kts
23-Mar-20 16:28 33.947122 -118.404755 134 126ft 0kts
23-Mar-20 16:29 33.947122 -118.404755 134 126ft 0kts
23-Mar-20 16:30 33.947122 -118.404755 134 126ft 0kts
23-Mar-20 16:31 33.947122 -118.404755 134 126ft 0kts
23-Mar-20 16:33 33.947122 -118.404755 134 126ft 0kts
23-Mar-20 16:34 33.947122 -118.404755 134 126ft 0kts
23-Mar-20 16:35 33.947122 -118.404755 134 126ft 0kts
23-Mar-20 16:36 33.947122 -118.404755 134 126ft 0kts
23-Mar-20 16:37 33.947122 -118.404755 134 126ft 0kts
23-Mar-20 16:38 33.947122 -118.404755 134 126ft 0kts
23-Mar-20 16:39 33.947122 -118.404755 134 126ft 0kts
23-Mar-20 16:40 33.947122 -118.404755 134 126ft 0kts
23-Mar-20 16:41 33.947122 -118.404755 134 126ft 0kts
23-Mar-20 16:42 33.947122 -118.404755 134 126ft 0kts
23-Mar-20 16:43 33.947122 -118.404755 134 126ft 0kts
23-Mar-20 16:44 33.947122 -118.404755 134 126ft 0kts
23-Mar-20 16:45 33.947296 -118.404974 133 126ft 2kts
23-Mar-20 16:46 33.947458 -118.405546 59 126ft 2kts
23-Mar-20 16:47 33.947098 -118.405737 353 126ft 0kts
23-Mar-20 16:47 33.947098 -118.405737 353 126ft 0kts
23-Mar-20 16:49 33.947098 -118.405737 353 126ft 0kts
23-Mar-20 16:50 33.947098 -118.405737 353 126ft 0kts
23-Mar-20 16:50 33.947098 -118.405737 353 126ft 0kts
23-Mar-20 16:52 33.948687 -118.405521 79 127ft 11kts
23-Mar-20 16:53 33.949423 -118.399402 46 119ft 0kts
23-Mar-20 16:53 33.949456 -118.399361 46 119ft 0kts
23-Mar-20 16:54 33.950384 -118.399433 264 118ft 0kts
23-Mar-20 16:56 33.947717 -118.424907 260 741ft 175kts
23-Mar-20 16:56 33.921105 -118.459927 192 4356ft 194kts
23-Mar-20 16:57 33.898291 -118.401535 60 4997ft 280kts
23-Mar-20 16:58 33.903388 -118.317323 134 4998ft 277kts
23-Mar-20 16:59 33.859434 -118.238024 119 7704ft 291kts
23-Mar-20 17:00 33.821716 -118.148509 118 10336ft 306kts
23-Mar-20 17:01 33.775300 -118.047641 130 10965ft 385kts
23-Mar-20 17:02 33.698117 -117.953795 137 10970ft 393kts
23-Mar-20 17:03 33.619602 -117.861532 137 10974ft 393kts
23-Mar-20 17:04 33.541077 -117.769068 137 10977ft 394kts
23-Mar-20 17:05 33.462767 -117.677171 137 10981ft 394kts
23-Mar-20 17:06 33.384384 -117.585515 137 10990ft 394kts
23-Mar-20 17:07 33.305922 -117.493865 137 10993ft 393kts
23-Mar-20 17:08 33.222502 -117.410548 156 10989ft 389kts
23-Mar-20 17:09 33.127999 -117.369994 163 10040ft 328kts
23-Mar-20 17:10 33.049450 -117.337091 163 8335ft 284kts
23-Mar-20 17:11 32.976272 -117.306327 163 6956ft 279kts
23-Mar-20 17:12 32.902954 -117.275521 163 6952ft 280kts
23-Mar-20 17:13 32.828844 -117.244611 163 6956ft 282kts
23-Mar-20 17:14 32.765863 -117.192856 118 6968ft 289kts
23-Mar-20 17:15 32.745943 -117.103123 82 6970ft 289kts
23-Mar-20 17:16 32.756515 -117.007346 81 6968ft 292kts
23-Mar-20 17:17 32.766426 -116.917667 81 6342ft 254kts
23-Mar-20 17:18 32.775664 -116.835059 81 4974ft 251kts
23-Mar-20 17:19 32.785044 -116.752649 83 4970ft 251kts
23-Mar-20 17:20 32.742381 -116.709492 199 4983ft 230kts
23-Mar-20 17:21 32.694594 -116.750061 250 4976ft 220kts
23-Mar-20 17:22 32.673844 -116.816923 251 4971ft 214kts
23-Mar-20 17:23 32.662861 -116.883627 279 4961ft 196kts
23-Mar-20 17:24 32.674823 -116.946072 284 4635ft 177kts
23-Mar-20 17:25 32.688606 -117.004486 285 3007ft 183kts
23-Mar-20 17:26 32.701979 -117.059617 285 2271ft 173kts
23-Mar-20 17:27 32.715073 -117.113032 284 1828ft 143kts
23-Mar-20 17:28 32.725522 -117.156829 285 545ft 131kts
23-Mar-20 17:29 32.734698 -117.194546 285 22ft 67kts
23-Mar-20 17:30 32.735641 -117.202179 208 19ft 5kts
23-Mar-20 17:31 32.734525 -117.203399 230 19ft 0kts
23-Mar-20 17:32 32.734523 -117.203402 230 19ft 0kts

Navigation Log

Ident Type
Flight plan parsing failed, navigation log unavailable